createdAt,value
2022-10-22T00:01:40.800Z,13.31
2022-10-22T00:07:52.122Z,13.21
2022-10-22T00:10:55.171Z,13.18
2022-10-22T00:13:59.552Z,13.26
2022-10-22T00:17:02.497Z,13.27
2022-10-22T00:20:07.300Z,13.28
2022-10-22T00:23:10.452Z,13.29
2022-10-22T00:26:13.824Z,13.27
2022-10-22T00:29:19.914Z,13.31
2022-10-22T00:32:22.837Z,13.37
2022-10-22T00:35:25.947Z,13.39
2022-10-22T00:38:28.956Z,13.40
2022-10-22T00:41:31.986Z,13.41
2022-10-22T00:45:26.088Z,13.44
2022-10-22T00:48:33.304Z,13.41
2022-10-22T00:51:37.225Z,13.42
2022-10-22T00:54:41.181Z,13.42
2022-10-22T00:57:44.801Z,13.36
2022-10-22T01:00:49.705Z,13.36
2022-10-22T01:03:53.295Z,13.36
2022-10-22T01:06:56.277Z,13.35
2022-10-22T01:10:09.995Z,13.38
2022-10-22T01:13:26.055Z,13.36
2022-10-22T01:16:40.522Z,13.26
2022-10-22T01:19:57.969Z,13.33
2022-10-22T01:23:14.794Z,13.34
2022-10-22T01:26:29.426Z,13.30
2022-10-22T01:29:39.130Z,13.35
2022-10-22T01:32:46.687Z,13.51
2022-10-22T01:35:50.159Z,13.52
2022-10-22T01:38:54.386Z,13.57
2022-10-22T01:41:58.499Z,13.51
2022-10-22T01:45:02.770Z,13.52
2022-10-22T01:49:08.829Z,13.42
2022-10-22T01:52:25.215Z,13.40
2022-10-22T01:55:38.991Z,13.36
2022-10-22T01:58:53.293Z,13.37
2022-10-22T02:02:07.264Z,13.35
2022-10-22T02:05:17.972Z,13.35
2022-10-22T02:08:25.886Z,13.30
2022-10-22T02:11:28.957Z,13.21
2022-10-22T02:14:34.123Z,13.25
2022-10-22T02:17:39.550Z,13.18
2022-10-22T02:20:43.611Z,13.18
2022-10-22T02:23:47.206Z,13.34
2022-10-22T02:26:59.115Z,13.29
2022-10-22T02:30:06.540Z,13.28
2022-10-22T02:33:18.231Z,13.25
2022-10-22T02:36:22.200Z,13.29
2022-10-22T02:39:26.084Z,13.23
2022-10-22T02:42:30.490Z,13.10
2022-10-22T02:45:34.774Z,13.05
2022-10-22T02:48:39.330Z,13.13
2022-10-22T02:51:42.659Z,13.11
2022-10-22T02:54:45.661Z,13.11
2022-10-22T02:57:48.825Z,13.10
2022-10-22T03:00:51.812Z,13.04
2022-10-22T03:03:56.082Z,12.98
2022-10-22T03:06:59.078Z,12.96
2022-10-22T03:10:02.089Z,12.98
2022-10-22T03:13:05.087Z,13.00
2022-10-22T03:16:08.511Z,12.98
2022-10-22T03:19:12.883Z,12.95
2022-10-22T03:22:22.193Z,12.92
2022-10-22T03:25:27.907Z,12.94
2022-10-22T03:28:32.218Z,13.01
2022-10-22T03:31:35.126Z,13.01
2022-10-22T03:34:39.416Z,12.98
2022-10-22T03:37:42.882Z,12.93
2022-10-22T03:40:47.047Z,12.96
2022-10-22T03:43:52.914Z,12.95
2022-10-22T03:46:58.709Z,12.95
2022-10-22T03:50:08.044Z,12.99
2022-10-22T03:53:11.413Z,12.99
2022-10-22T03:56:15.157Z,12.99
2022-10-22T03:59:19.168Z,12.99
2022-10-22T04:02:22.128Z,13.01
2022-10-22T04:05:26.537Z,12.97
2022-10-22T04:08:29.433Z,13.02
2022-10-22T04:11:32.418Z,13.04
2022-10-22T04:14:35.718Z,12.98
2022-10-22T04:17:39.524Z,12.97
2022-10-22T04:20:43.998Z,12.97
2022-10-22T04:23:48.640Z,12.96
2022-10-22T04:26:51.596Z,12.98
2022-10-22T04:29:54.523Z,12.96
2022-10-22T04:32:57.446Z,12.98
2022-10-22T04:36:02.992Z,12.98
2022-10-22T04:39:07.448Z,12.91
2022-10-22T04:42:10.646Z,12.95
2022-10-22T04:45:15.574Z,12.91
2022-10-22T04:48:20.380Z,12.95
2022-10-22T04:51:27.297Z,12.92
2022-10-22T04:54:32.958Z,12.93
2022-10-22T04:57:36.314Z,12.95
2022-10-22T05:00:39.307Z,12.90
2022-10-22T05:03:43.368Z,12.92
2022-10-22T05:06:48.266Z,12.90
2022-10-22T05:09:51.264Z,12.84
2022-10-22T05:12:54.481Z,12.83
2022-10-22T05:15:57.353Z,12.84
2022-10-22T05:19:02.029Z,12.81
2022-10-22T05:22:06.677Z,12.79
2022-10-22T05:25:12.358Z,12.66
2022-10-22T05:28:15.272Z,12.65
2022-10-22T05:31:19.034Z,12.62
2022-10-22T05:34:22.000Z,12.64
2022-10-22T05:37:26.365Z,12.56
2022-10-22T05:40:31.107Z,12.51
2022-10-22T05:43:34.697Z,12.52
2022-10-22T05:46:37.742Z,12.48
2022-10-22T05:49:40.815Z,12.52
2022-10-22T05:52:45.094Z,12.58
2022-10-22T05:55:48.031Z,12.55
2022-10-22T05:58:51.509Z,12.61
2022-10-22T06:01:54.464Z,12.52
2022-10-22T06:04:57.413Z,12.47
2022-10-22T06:08:02.344Z,12.45
2022-10-22T06:11:06.427Z,12.43
2022-10-22T06:14:11.068Z,12.41
2022-10-22T06:17:14.483Z,12.41
2022-10-22T06:20:17.507Z,12.39
2022-10-22T06:23:22.007Z,12.37
2022-10-22T06:26:25.005Z,12.35
2022-10-22T06:29:28.051Z,12.38
2022-10-22T06:32:31.515Z,12.45
2022-10-22T06:35:34.543Z,12.43
2022-10-22T06:38:39.350Z,12.46
2022-10-22T06:41:42.337Z,12.48
2022-10-22T06:44:45.454Z,12.53
2022-10-22T06:47:48.954Z,12.56
2022-10-22T06:50:51.884Z,12.65
2022-10-22T06:53:57.670Z,12.73
2022-10-22T06:57:00.863Z,12.78
2022-10-22T07:00:05.190Z,12.86
2022-10-22T07:03:08.111Z,12.90
2022-10-22T07:06:14.302Z,12.98
2022-10-22T07:12:27.153Z,13.13
2022-10-22T07:15:30.068Z,13.18
2022-10-22T07:18:35.265Z,13.22
2022-10-22T07:21:38.565Z,13.23
2022-10-22T07:24:42.876Z,13.29
2022-10-22T07:27:46.227Z,13.37
2022-10-22T07:30:49.627Z,13.43
2022-10-22T07:33:52.541Z,13.49
2022-10-22T07:36:57.161Z,13.55
2022-10-22T07:40:03.802Z,13.62
2022-10-22T07:43:07.522Z,13.71
2022-10-22T07:46:10.504Z,13.78
2022-10-22T07:49:13.419Z,13.77
2022-10-22T07:52:16.330Z,13.85
2022-10-22T07:55:20.615Z,13.88
2022-10-22T07:58:24.678Z,13.91
2022-10-22T08:01:27.637Z,13.94
2022-10-22T08:04:30.589Z,13.98
2022-10-22T08:07:33.721Z,14.01
2022-10-22T08:10:38.400Z,14.08
2022-10-22T08:13:45.130Z,14.11
2022-10-22T08:16:48.445Z,14.14
2022-10-22T08:19:51.398Z,14.20
2022-10-22T08:22:54.353Z,14.19
2022-10-22T08:25:59.593Z,14.26
2022-10-22T08:29:02.529Z,14.33
2022-10-22T08:32:06.265Z,14.36
2022-10-22T08:35:10.425Z,14.40
2022-10-22T08:38:14.404Z,14.44
2022-10-22T08:41:21.738Z,14.46
2022-10-22T08:44:46.055Z,14.37
2022-10-22T08:48:06.445Z,14.40
2022-10-22T08:51:16.258Z,14.39
2022-10-22T08:54:29.943Z,14.45
2022-10-22T08:57:52.205Z,14.50
2022-10-22T09:01:01.123Z,14.58
2022-10-22T09:04:13.048Z,14.64
2022-10-22T09:07:16.490Z,14.68
2022-10-22T09:10:23.601Z,14.64
2022-10-22T09:13:27.865Z,14.68
2022-10-22T09:16:38.530Z,14.74
2022-10-22T09:19:58.459Z,14.77
2022-10-22T09:23:20.343Z,14.81
2022-10-22T09:26:23.252Z,14.84
2022-10-22T09:29:34.708Z,14.79
2022-10-22T09:32:37.815Z,14.84
2022-10-22T09:35:48.132Z,14.94
2022-10-22T09:38:53.517Z,15.04
2022-10-22T09:41:56.507Z,15.06
2022-10-22T09:45:01.396Z,15.12
2022-10-22T09:48:16.376Z,15.16
2022-10-22T09:51:22.149Z,15.20
2022-10-22T09:54:27.040Z,15.31
2022-10-22T09:57:30.483Z,15.31
2022-10-22T10:00:34.994Z,15.32
2022-10-22T10:03:37.919Z,15.38
2022-10-22T10:06:44.163Z,15.49
2022-10-22T10:09:48.070Z,15.51
2022-10-22T10:12:58.778Z,15.43
2022-10-22T10:16:13.990Z,15.54
2022-10-22T10:19:39.371Z,15.55
2022-10-22T10:22:51.822Z,15.62
2022-10-22T10:26:04.807Z,15.59
2022-10-22T10:29:26.839Z,15.63
2022-10-22T10:32:51.568Z,15.65
2022-10-22T10:36:04.367Z,15.68
2022-10-22T10:39:13.540Z,15.75
2022-10-22T10:42:28.162Z,15.78
2022-10-22T10:45:38.909Z,15.77
2022-10-22T10:48:57.072Z,15.83
2022-10-22T10:52:10.411Z,15.87
2022-10-22T10:55:23.683Z,15.89
2022-10-22T10:58:36.065Z,15.99
2022-10-22T11:01:49.725Z,16.15
2022-10-22T11:05:13.924Z,16.07
2022-10-22T11:08:22.826Z,16.31
2022-10-22T11:11:34.126Z,16.54
2022-10-22T11:14:42.812Z,16.76
2022-10-22T11:17:48.749Z,16.77
2022-10-22T11:21:10.284Z,16.71
2022-10-22T11:24:21.546Z,16.70
2022-10-22T11:27:33.163Z,16.89
2022-10-22T11:30:37.968Z,16.93
2022-10-22T11:33:48.771Z,16.72
2022-10-22T11:36:55.472Z,16.54
2022-10-22T11:40:02.315Z,16.59
2022-10-22T11:43:07.683Z,16.81
2022-10-22T11:46:31.270Z,17.05
2022-10-22T11:49:44.779Z,16.85
2022-10-22T11:53:01.387Z,16.95
2022-10-22T11:56:24.493Z,17.13
2022-10-22T11:59:42.375Z,17.34
2022-10-22T12:02:45.989Z,17.56
2022-10-22T12:06:08.381Z,17.78
2022-10-22T12:09:13.917Z,17.98
2022-10-22T12:12:17.279Z,18.04
2022-10-22T12:15:27.029Z,18.21
2022-10-22T12:18:41.658Z,18.44
2022-10-22T12:21:49.541Z,18.39
2022-10-22T12:24:58.027Z,18.46
2022-10-22T12:28:01.349Z,18.21
2022-10-22T12:31:04.527Z,18.01
2022-10-22T12:34:07.610Z,17.99
2022-10-22T12:37:12.591Z,17.83
2022-10-22T12:40:26.901Z,18.08
2022-10-22T12:43:32.421Z,18.10
2022-10-22T12:46:36.969Z,17.93
2022-10-22T12:49:44.207Z,17.95
2022-10-22T12:52:47.439Z,17.96
2022-10-22T12:55:55.089Z,18.01
2022-10-22T12:59:01.389Z,18.07
2022-10-22T13:02:17.337Z,18.21
2022-10-22T13:05:27.346Z,18.35
2022-10-22T13:08:30.279Z,18.57
2022-10-22T13:11:39.935Z,18.68
2022-10-22T13:14:44.575Z,18.87
2022-10-22T13:17:49.552Z,18.92
2022-10-22T13:20:55.600Z,19.12
2022-10-22T13:24:01.509Z,19.12
2022-10-22T13:27:10.270Z,19.26
2022-10-22T13:30:23.189Z,19.06
2022-10-22T13:33:31.225Z,19.20
2022-10-22T13:36:34.647Z,19.43
2022-10-22T13:39:37.886Z,19.61
2022-10-22T13:42:42.587Z,19.87
2022-10-22T13:45:47.995Z,19.69
2022-10-22T13:48:53.768Z,19.84
2022-10-22T13:51:56.732Z,19.71
2022-10-22T13:54:59.914Z,19.78
2022-10-22T13:58:12.622Z,19.84
2022-10-22T14:01:22.620Z,19.59
2022-10-22T14:04:26.355Z,19.81
2022-10-22T14:07:29.512Z,20.16
2022-10-22T14:10:32.471Z,20.45
2022-10-22T14:13:36.754Z,19.99
2022-10-22T14:16:40.355Z,19.90
2022-10-22T14:19:45.457Z,19.71
2022-10-22T14:22:49.821Z,19.82
2022-10-22T14:25:52.770Z,19.56
2022-10-22T14:29:09.423Z,19.54
2022-10-22T14:32:14.967Z,19.34
2022-10-22T14:35:22.462Z,19.38
2022-10-22T14:38:25.444Z,19.36
2022-10-22T14:41:30.038Z,19.25
2022-10-22T14:44:34.288Z,19.21
2022-10-22T14:47:37.271Z,18.88
2022-10-22T14:50:40.234Z,18.85
2022-10-22T14:53:43.739Z,18.77
2022-10-22T14:56:46.818Z,18.72
2022-10-22T14:59:54.768Z,18.57
2022-10-22T15:03:03.297Z,18.64
2022-10-22T15:06:08.105Z,18.60
2022-10-22T15:09:11.171Z,18.52
2022-10-22T15:12:14.106Z,18.59
2022-10-22T15:15:22.819Z,18.46
2022-10-22T15:18:27.793Z,18.46
2022-10-22T15:21:30.902Z,18.43
2022-10-22T15:24:34.177Z,18.24
2022-10-22T15:27:37.626Z,18.06
2022-10-22T15:30:41.903Z,17.65
2022-10-22T15:33:45.188Z,17.52
2022-10-22T15:36:48.484Z,17.44
2022-10-22T15:39:51.413Z,17.22
2022-10-22T15:42:54.370Z,17.22
2022-10-22T15:46:12.112Z,17.20
2022-10-22T15:49:15.645Z,17.05
2022-10-22T15:52:18.789Z,16.86
2022-10-22T15:55:22.243Z,16.60
2022-10-22T15:58:25.194Z,16.42
2022-10-22T16:01:29.704Z,16.18
2022-10-22T16:04:32.625Z,15.95
2022-10-22T16:07:35.751Z,15.81
2022-10-22T16:10:39.298Z,15.71
2022-10-22T16:13:42.284Z,15.59
2022-10-22T16:16:49.705Z,15.48
2022-10-22T16:19:53.057Z,15.40
2022-10-22T16:22:55.996Z,15.33
2022-10-22T16:26:02.481Z,15.27
2022-10-22T16:29:07.172Z,15.18
2022-10-22T16:32:13.206Z,15.10
2022-10-22T16:35:16.337Z,15.00
2022-10-22T16:38:19.268Z,14.88
2022-10-22T16:41:24.903Z,14.81
2022-10-22T16:44:28.063Z,14.73
2022-10-22T16:47:32.383Z,14.65
2022-10-22T16:50:35.391Z,14.57
2022-10-22T16:53:38.731Z,14.53
2022-10-22T16:56:42.397Z,14.44
2022-10-22T16:59:45.386Z,14.43
2022-10-22T17:02:54.009Z,14.33
2022-10-22T17:05:59.775Z,14.28
2022-10-22T17:09:02.802Z,14.23
2022-10-22T17:12:06.271Z,14.16
2022-10-22T17:15:10.434Z,14.14
2022-10-22T17:18:14.887Z,14.09
2022-10-22T17:21:19.562Z,14.04
2022-10-22T17:24:22.546Z,14.03
2022-10-22T17:27:25.572Z,14.05
2022-10-22T17:30:28.829Z,13.99
2022-10-22T17:33:33.254Z,13.95
2022-10-22T17:36:37.126Z,13.87
2022-10-22T17:39:40.063Z,13.85
2022-10-22T17:42:43.300Z,13.79
2022-10-22T17:45:46.545Z,13.71
2022-10-22T17:48:55.645Z,13.57
2022-10-22T17:55:08.189Z,13.52
2022-10-22T17:58:11.182Z,13.52
2022-10-22T18:01:20.960Z,13.49
2022-10-22T18:04:25.228Z,13.48
2022-10-22T18:07:28.153Z,13.47
2022-10-22T18:10:32.001Z,13.48
2022-10-22T18:13:35.181Z,13.49
2022-10-22T18:16:38.114Z,13.49
2022-10-22T18:19:42.516Z,13.47
2022-10-22T18:22:46.075Z,13.52
2022-10-22T18:25:49.054Z,13.52
2022-10-22T18:28:52.256Z,13.65
2022-10-22T18:31:55.280Z,13.94
2022-10-22T18:34:59.604Z,14.07
2022-10-22T18:38:02.567Z,14.09
2022-10-22T18:41:07.937Z,14.10
2022-10-22T18:44:14.977Z,14.05
2022-10-22T18:47:18.141Z,14.10
2022-10-22T18:50:22.477Z,14.06
2022-10-22T18:53:25.645Z,14.09
2022-10-22T18:56:28.739Z,14.21
2022-10-22T18:59:32.198Z,14.09
2022-10-22T19:02:35.173Z,14.00
2022-10-22T19:05:46.116Z,13.89
2022-10-22T19:08:51.295Z,13.78
2022-10-22T19:11:54.546Z,13.65
2022-10-22T19:14:57.535Z,13.58
2022-10-22T19:18:00.504Z,13.49
2022-10-22T19:21:05.729Z,13.48
2022-10-22T19:24:08.828Z,13.38
2022-10-22T19:27:11.769Z,13.33
2022-10-22T19:30:15.115Z,13.30
2022-10-22T19:33:18.153Z,13.31
2022-10-22T19:36:25.203Z,13.26
2022-10-22T19:39:28.459Z,13.27
2022-10-22T19:42:31.500Z,13.21
2022-10-22T19:45:34.503Z,13.16
2022-10-22T19:48:38.555Z,13.13
2022-10-22T19:51:42.919Z,13.15
2022-10-22T19:54:45.878Z,13.12
2022-10-22T19:57:48.818Z,13.10
2022-10-22T20:00:51.999Z,13.00
2022-10-22T20:03:55.510Z,13.01
2022-10-22T20:06:59.790Z,12.96
2022-10-22T20:10:02.791Z,12.86
2022-10-22T20:13:05.824Z,12.91
2022-10-22T20:16:08.876Z,12.91
2022-10-22T20:19:15.861Z,13.13
2022-10-22T20:22:20.158Z,13.20
2022-10-22T20:25:23.161Z,13.26
2022-10-22T20:28:26.222Z,13.28
2022-10-22T20:31:30.698Z,13.24
2022-10-22T20:34:33.621Z,13.21
2022-10-22T20:37:37.948Z,13.19
2022-10-22T20:40:41.023Z,13.23
2022-10-22T20:43:45.488Z,13.24
2022-10-22T20:46:48.581Z,13.28
2022-10-22T20:49:51.559Z,13.32
2022-10-22T20:52:55.816Z,13.37
2022-10-22T20:56:00.254Z,13.51
2022-10-22T20:59:08.207Z,13.62
2022-10-22T21:02:12.263Z,13.78
2022-10-22T21:05:15.214Z,13.81
2022-10-22T21:08:19.509Z,13.83
2022-10-22T21:11:24.351Z,13.84
2022-10-22T21:14:27.347Z,13.90
2022-10-22T21:17:30.284Z,13.96
2022-10-22T21:20:33.220Z,13.96
2022-10-22T21:23:38.152Z,14.11
2022-10-22T21:26:43.810Z,14.19
2022-10-22T21:29:46.735Z,14.30
2022-10-22T21:32:49.744Z,14.35
2022-10-22T21:35:53.767Z,14.45
2022-10-22T21:38:58.159Z,14.49
2022-10-22T21:42:01.091Z,14.52
2022-10-22T21:45:06.968Z,14.56
2022-10-22T21:48:13.581Z,14.58
2022-10-22T21:51:18.583Z,14.62
2022-10-22T21:54:22.817Z,14.68
2022-10-22T21:57:25.793Z,14.68
2022-10-22T22:00:29.015Z,14.76
2022-10-22T22:03:31.989Z,14.83
2022-10-22T22:06:35.341Z,14.84
2022-10-22T22:09:39.836Z,14.83
2022-10-22T22:12:43.016Z,14.82
2022-10-22T22:15:46.236Z,14.89
2022-10-22T22:18:49.189Z,14.87
2022-10-22T22:21:52.874Z,14.79
2022-10-22T22:24:57.183Z,14.70
2022-10-22T22:28:00.104Z,14.63
2022-10-22T22:31:12.710Z,14.58
2022-10-22T22:34:17.761Z,14.53
2022-10-22T22:37:20.712Z,14.48
2022-10-22T22:40:24.998Z,14.43
2022-10-22T22:43:28.067Z,14.33
2022-10-22T22:46:31.028Z,14.18
2022-10-22T22:49:35.418Z,14.08
2022-10-22T22:52:38.633Z,13.96
2022-10-22T22:55:43.002Z,13.80
2022-10-22T22:58:46.482Z,13.66
2022-10-22T23:01:51.072Z,13.55
2022-10-22T23:04:54.357Z,13.44
2022-10-22T23:07:57.544Z,13.45
2022-10-22T23:11:06.629Z,13.41
2022-10-22T23:14:13.718Z,13.26
2022-10-22T23:17:17.931Z,13.05
2022-10-22T23:20:21.300Z,13.06
2022-10-22T23:23:24.398Z,12.99
2022-10-22T23:26:31.420Z,12.96
2022-10-22T23:29:36.862Z,12.92
2022-10-22T23:32:40.308Z,12.92
2022-10-22T23:35:43.955Z,12.87
2022-10-22T23:38:47.180Z,12.81
2022-10-22T23:41:52.190Z,12.85
2022-10-22T23:44:55.506Z,13.01
2022-10-22T23:47:58.405Z,13.01
2022-10-22T23:51:06.096Z,12.97
2022-10-22T23:54:13.592Z,12.87
2022-10-22T23:57:17.928Z,12.73
